Time;durP1;ratioP1;P1;durP2;ratioP2;P2;SDS_P1;SDS_P2;PMS_P1;PMS_P2;Temp;Humidity;BMP_temperature;BMP_pressure;BME280_temperature;BME280_humidity;BME280_pressure;Samples;Min_cycle;Max_cycle;Signal;HPM_P1;HPM_P2
2023/10/31 00:00:22;;;;;;;24.10;15.63;;;13.00;99.90;;;;;;5076640;28;20363;-71
2023/10/31 00:02:48;;;;;;;25.17;16.92;;;13.00;99.90;;;;;;5075960;28;20058;-71
2023/10/31 00:05:14;;;;;;;22.83;15.95;;;13.00;99.90;;;;;;5076326;28;20032;-71
2023/10/31 00:07:40;;;;;;;23.13;16.75;;;13.00;99.90;;;;;;5076529;28;20485;-72
2023/10/31 00:10:06;;;;;;;26.33;17.60;;;12.60;99.90;;;;;;5075906;28;20033;-76
2023/10/31 00:12:32;;;;;;;30.65;19.65;;;12.90;99.90;;;;;;5076126;28;20036;-71
2023/10/31 00:14:57;;;;;;;32.60;22.75;;;12.70;99.90;;;;;;5076433;28;20082;-71
2023/10/31 00:17:23;;;;;;;32.55;22.48;;;13.00;99.90;;;;;;5076386;28;20028;-71
2023/10/31 00:19:48;;;;;;;38.95;25.27;;;12.80;99.90;;;;;;5075663;28;20463;-71
2023/10/31 00:22:14;;;;;;;34.97;24.00;;;13.00;99.90;;;;;;5075351;28;20052;-71
2023/10/31 00:24:39;;;;;;;30.98;22.67;;;13.00;99.90;;;;;;5075730;28;20068;-72
2023/10/31 00:27:05;;;;;;;29.58;21.10;;;13.00;99.90;;;;;;5075721;28;20062;-72
2023/10/31 00:29:30;;;;;;;21.95;16.42;;;13.40;99.90;;;;;;5075876;28;20029;-71
2023/10/31 00:31:56;;;;;;;17.70;13.27;;;13.10;99.90;;;;;;5075430;28;20024;-72
2023/10/31 00:34:21;;;;;;;15.23;10.50;;;12.50;99.90;;;;;;5075695;28;20036;-72
2023/10/31 00:36:47;;;;;;;12.18;9.10;;;13.10;99.90;;;;;;5075500;28;20025;-72
2023/10/31 00:39:13;;;;;;;10.13;7.45;;;13.10;99.90;;;;;;5075824;28;20086;-72
2023/10/31 00:41:44;;;;;;;7.70;5.72;;;13.10;99.90;;;;;;5075750;28;20082;-72
2023/10/31 00:44:09;;;;;;;7.85;6.20;;;13.10;99.90;;;;;;5075102;28;20028;-73
2023/10/31 00:46:35;;;;;;;8.00;6.22;;;13.20;99.90;;;;;;5075800;28;20032;-74
2023/10/31 00:49:00;;;;;;;6.78;6.03;;;13.20;99.90;;;;;;5075668;28;20059;-73
2023/10/31 00:51:26;;;;;;;6.28;5.68;;;13.10;99.90;;;;;;5074930;28;20480;-72
2023/10/31 00:53:51;;;;;;;7.43;5.43;;;13.10;99.90;;;;;;5074918;28;20020;-76
2023/10/31 00:56:17;;;;;;;5.97;5.38;;;13.00;99.90;;;;;;5075455;28;20033;-73
2023/10/31 00:58:43;;;;;;;6.18;5.57;;;13.00;99.90;;;;;;5075098;28;20028;-73
2023/10/31 01:01:08;;;;;;;9.15;6.18;;;12.80;99.90;;;;;;5075171;28;20028;-75
2023/10/31 01:03:34;;;;;;;7.78;6.88;;;12.70;99.90;;;;;;5075413;28;20025;-74
2023/10/31 01:05:59;;;;;;;8.25;6.90;;;12.60;99.90;;;;;;5074996;28;20032;-73
2023/10/31 01:08:25;;;;;;;8.48;7.60;;;12.50;99.90;;;;;;5074954;28;20028;-74
2023/10/31 01:10:50;;;;;;;10.07;8.52;;;12.30;99.90;;;;;;5074976;28;20134;-73
2023/10/31 01:13:16;;;;;;;10.18;8.98;;;12.20;99.90;;;;;;5074182;28;20025;-71
2023/10/31 01:15:41;;;;;;;9.55;8.57;;;12.10;99.90;;;;;;5074291;28;20042;-72
2023/10/31 01:18:07;;;;;;;10.00;9.00;;;11.80;99.90;;;;;;5075015;28;20370;-71
2023/10/31 01:20:32;;;;;;;9.13;8.13;;;12.00;99.90;;;;;;5074970;28;20035;-74
2023/10/31 01:22:58;;;;;;;9.13;8.20;;;12.00;99.90;;;;;;5074035;28;20044;-72
2023/10/31 01:25:24;;;;;;;8.10;7.30;;;11.90;99.90;;;;;;5074453;28;20047;-71
2023/10/31 01:27:49;;;;;;;8.07;6.85;;;11.80;99.90;;;;;;5074231;28;20078;-72
2023/10/31 01:30:15;;;;;;;7.70;6.43;;;11.90;99.90;;;;;;5074445;28;20032;-72
2023/10/31 01:32:40;;;;;;;9.13;6.60;;;11.70;99.90;;;;;;5074431;28;20048;-73
2023/10/31 01:35:06;;;;;;;8.32;7.35;;;11.60;99.90;;;;;;5074230;28;20032;-72
2023/10/31 01:37:32;;;;;;;7.80;7.00;;;11.60;99.90;;;;;;5074622;28;20032;-71
2023/10/31 01:39:57;;;;;;;9.18;7.30;;;11.60;99.90;;;;;;5074446;28;20044;-72
2023/10/31 01:42:23;;;;;;;8.35;7.43;;;11.50;99.90;;;;;;5073976;28;20020;-72
2023/10/31 01:44:48;;;;;;;7.68;6.10;;;11.60;99.90;;;;;;5074467;28;20032;-72
2023/10/31 01:47:14;;;;;;;6.75;6.15;;;11.60;99.90;;;;;;5074091;28;20033;-73
2023/10/31 01:49:40;;;;;;;8.00;6.75;;;11.40;99.90;;;;;;5073860;28;20382;-70
2023/10/31 01:52:06;;;;;;;8.30;7.22;;;11.50;99.90;;;;;;5073688;28;20033;-71
2023/10/31 01:54:33;;;;;;;8.27;7.20;;;11.40;99.90;;;;;;5073984;28;20033;-71
2023/10/31 01:57:00;;;;;;;9.23;7.85;;;11.30;99.90;;;;;;5073966;28;20029;-71
2023/10/31 01:59:26;;;;;;;11.55;8.18;;;11.20;99.90;;;;;;5074139;28;20532;-71
2023/10/31 02:01:52;;;;;;;10.23;8.38;;;11.20;99.90;;;;;;5074347;28;20429;-71
2023/10/31 02:04:18;;;;;;;10.27;7.75;;;11.40;99.90;;;;;;5073308;28;20112;-72
2023/10/31 02:06:43;;;;;;;10.30;7.47;;;11.40;99.90;;;;;;5074091;28;20028;-71
2023/10/31 02:09:09;;;;;;;10.27;7.60;;;11.10;99.90;;;;;;5073050;28;20028;-74
2023/10/31 02:11:34;;;;;;;10.57;6.97;;;11.30;99.90;;;;;;5073961;28;20025;-73
2023/10/31 02:14:01;;;;;;;7.78;6.97;;;11.30;99.90;;;;;;5073841;28;20115;-74
2023/10/31 02:16:27;;;;;;;8.45;6.43;;;11.20;99.90;;;;;;5074171;28;20029;-74
2023/10/31 02:18:53;;;;;;;10.75;6.68;;;11.20;99.90;;;;;;5074294;28;20524;-73
2023/10/31 02:21:20;;;;;;;9.95;7.10;;;11.10;99.90;;;;;;5073874;28;20051;-72
2023/10/31 02:24:05;;;;;;;9.00;6.90;;;11.10;99.90;;;;;;5073842;28;20113;-73
2023/10/31 02:26:33;;;;;;;11.20;7.38;;;11.50;99.90;;;;;;5073296;28;20063;-77
2023/10/31 02:28:59;;;;;;;9.65;8.65;;;10.90;99.90;;;;;;5074064;28;20031;-73
2023/10/31 02:31:25;;;;;;;8.77;7.60;;;11.10;99.90;;;;;;5073763;28;20025;-73
2023/10/31 02:33:51;;;;;;;8.70;7.00;;;11.00;99.90;;;;;;5074027;28;20028;-73
2023/10/31 02:36:17;;;;;;;10.15;7.88;;;11.00;99.90;;;;;;5073770;28;20029;-73
2023/10/31 02:38:42;;;;;;;8.85;7.95;;;10.70;99.90;;;;;;5073436;28;20421;-72
2023/10/31 02:41:08;;;;;;;9.30;7.90;;;11.00;99.90;;;;;;5073561;28;20415;-72
2023/10/31 02:43:33;;;;;;;9.68;8.50;;;10.90;99.90;;;;;;5073251;28;20017;-72
2023/10/31 02:45:59;;;;;;;11.98;8.75;;;10.90;99.90;;;;;;5072785;28;20033;-72
2023/10/31 02:48:26;;;;;;;9.23;7.07;;;10.80;99.90;;;;;;5073247;28;20056;-73
2023/10/31 02:50:52;;;;;;;8.30;7.47;;;11.10;99.90;;;;;;5073890;28;20024;-73
2023/10/31 02:53:18;;;;;;;8.25;6.95;;;10.70;99.90;;;;;;5072837;28;20493;-73
2023/10/31 02:55:44;;;;;;;8.15;7.30;;;10.70;99.90;;;;;;5073660;28;20036;-74
2023/10/31 02:58:10;;;;;;;7.50;6.80;;;10.70;99.90;;;;;;5073528;28;20029;-74
2023/10/31 03:00:36;;;;;;;7.07;6.15;;;10.70;99.90;;;;;;5073847;28;20056;-73
2023/10/31 03:03:02;;;;;;;8.13;6.45;;;11.10;99.90;;;;;;5073539;28;20070;-73
2023/10/31 03:05:27;;;;;;;10.77;7.30;;;10.70;99.90;;;;;;5075821;28;20025;-73
2023/10/31 03:07:53;;;;;;;10.93;8.80;;;10.70;99.90;;;;;;5076652;28;20032;-73
2023/10/31 03:10:21;;;;;;;13.93;9.13;;;10.60;99.90;;;;;;5076886;28;20048;-75
2023/10/31 03:12:46;;;;;;;11.98;10.48;;;10.70;99.90;;;;;;5077262;28;20470;-74
2023/10/31 03:15:12;;;;;;;13.40;11.63;;;10.60;99.90;;;;;;5077378;28;20037;-72
2023/10/31 03:17:37;;;;;;;13.13;11.10;;;10.70;99.90;;;;;;5076830;28;20068;-72
2023/10/31 03:20:03;;;;;;;19.77;12.10;;;10.70;99.90;;;;;;5077347;28;20378;-72
2023/10/31 03:22:29;;;;;;;12.10;10.52;;;10.70;99.90;;;;;;5076489;28;20127;-72
2023/10/31 03:24:54;;;;;;;14.70;11.18;;;10.70;99.90;;;;;;5077087;28;20371;-73
2023/10/31 03:27:20;;;;;;;16.48;11.88;;;10.30;99.90;;;;;;5077283;28;20068;-72
2023/10/31 03:29:45;;;;;;;16.00;11.88;;;10.60;99.90;;;;;;5076470;28;20032;-73
2023/10/31 03:32:12;;;;;;;20.30;13.85;;;10.60;99.90;;;;;;5077162;28;20036;-73
2023/10/31 03:34:37;;;;;;;20.92;13.98;;;10.20;99.90;;;;;;5077077;28;20119;-73
2023/10/31 03:37:04;;;;;;;21.02;14.43;;;10.60;99.90;;;;;;5076798;28;20430;-73
2023/10/31 03:39:29;;;;;;;23.23;15.63;;;11.00;99.90;;;;;;5076144;28;20123;-72
2023/10/31 03:41:55;;;;;;;23.33;16.27;;;10.60;99.90;;;;;;5076337;28;20158;-72
2023/10/31 03:44:20;;;;;;;24.33;17.50;;;10.50;99.90;;;;;;5076262;28;20029;-72
2023/10/31 03:46:46;;;;;;;24.83;15.30;;;10.60;99.90;;;;;;5076527;28;20403;-72
2023/10/31 03:49:11;;;;;;;21.83;15.23;;;10.20;99.90;;;;;;5076170;28;20468;-72
2023/10/31 03:51:37;;;;;;;23.65;15.80;;;10.80;99.90;;;;;;5076792;28;20119;-72
2023/10/31 03:54:02;;;;;;;22.95;16.58;;;11.00;99.90;;;;;;5076477;28;20054;-72
2023/10/31 03:56:28;;;;;;;22.33;15.55;;;10.70;99.90;;;;;;5076788;28;20029;-72
2023/10/31 03:58:53;;;;;;;25.42;16.13;;;10.60;99.90;;;;;;5076409;28;20082;-72
2023/10/31 04:01:19;;;;;;;22.15;15.88;;;10.60;99.90;;;;;;5076304;28;20420;-72
2023/10/31 04:03:44;;;;;;;23.85;17.08;;;10.60;99.90;;;;;;5076196;28;20021;-71
2023/10/31 04:06:10;;;;;;;28.10;18.02;;;10.60;99.90;;;;;;5076576;28;20039;-72
2023/10/31 04:08:36;;;;;;;27.55;18.77;;;10.40;99.90;;;;;;5076502;28;20032;-71
2023/10/31 04:11:01;;;;;;;26.90;19.02;;;10.50;99.90;;;;;;5075969;28;20024;-72
2023/10/31 04:13:27;;;;;;;30.70;20.23;;;10.70;99.90;;;;;;5076071;28;20035;-71
2023/10/31 04:15:52;;;;;;;23.80;19.00;;;10.50;99.90;;;;;;5075542;28;20024;-71
2023/10/31 04:18:18;;;;;;;30.27;20.48;;;10.50;99.90;;;;;;5076284;28;20032;-71
2023/10/31 04:20:44;;;;;;;28.60;19.95;;;10.70;99.90;;;;;;5076046;28;20031;-71
2023/10/31 04:23:11;;;;;;;26.30;19.85;;;10.40;99.90;;;;;;5075110;28;20045;-71
2023/10/31 04:25:37;;;;;;;30.88;20.35;;;10.40;99.90;;;;;;5075688;28;20397;-71
2023/10/31 04:28:04;;;;;;;32.08;21.75;;;;;;;;;;5075646;28;20028;-71
2023/10/31 04:30:29;;;;;;;33.42;23.08;;;10.60;99.90;;;;;;5075818;28;20031;-71
2023/10/31 04:32:55;;;;;;;35.30;23.17;;;10.50;99.90;;;;;;5075753;28;20106;-74
2023/10/31 04:35:20;;;;;;;34.17;23.00;;;10.50;99.90;;;;;;5075899;28;20439;-71
2023/10/31 04:37:46;;;;;;;34.95;22.65;;;10.50;99.90;;;;;;5075517;28;20029;-71
2023/10/31 04:40:12;;;;;;;35.35;22.88;;;10.50;99.90;;;;;;5075449;28;20048;-71
2023/10/31 04:42:40;;;;;;;32.70;21.63;;;10.60;99.90;;;;;;5075370;28;20040;-71
2023/10/31 04:45:06;;;;;;;31.15;21.20;;;10.50;99.90;;;;;;5075356;28;20463;-71
2023/10/31 04:47:32;;;;;;;35.67;23.15;;;10.60;99.90;;;;;;5075768;28;20461;-71
2023/10/31 04:49:57;;;;;;;33.40;21.10;;;10.60;99.90;;;;;;5074686;28;20016;-71
2023/10/31 04:52:25;;;;;;;33.75;20.98;;;10.80;99.90;;;;;;5075630;28;20111;-71
2023/10/31 04:54:51;;;;;;;32.50;20.70;;;10.60;99.90;;;;;;5075418;28;20033;-72
2023/10/31 04:57:17;;;;;;;32.38;21.15;;;10.70;99.90;;;;;;5075328;28;20040;-71
2023/10/31 04:59:42;;;;;;;31.08;20.20;;;10.70;99.90;;;;;;5075560;28;20035;-72
2023/10/31 05:02:08;;;;;;;35.60;20.55;;;11.00;99.90;;;;;;5075091;28;20424;-71
2023/10/31 05:04:34;;;;;;;29.88;19.98;;;11.00;99.90;;;;;;5074447;28;20024;-71
2023/10/31 05:06:59;;;;;;;31.83;21.02;;;10.70;99.90;;;;;;5074793;28;20096;-71
2023/10/31 05:09:25;;;;;;;34.80;20.45;;;10.70;99.90;;;;;;5075334;28;20024;-71
2023/10/31 05:11:51;;;;;;;28.40;18.88;;;10.80;99.90;;;;;;5074799;28;20094;-71
2023/10/31 05:14:17;;;;;;;26.55;18.30;;;10.70;99.90;;;;;;5074683;28;20016;-72
2023/10/31 05:16:43;;;;;;;24.10;16.50;;;10.70;99.90;;;;;;5074607;28;20462;-72
2023/10/31 05:19:09;;;;;;;25.00;15.70;;;10.70;99.90;;;;;;5074389;28;20029;-72
2023/10/31 05:21:35;;;;;;;24.45;16.27;;;10.70;99.90;;;;;;5074905;28;20491;-72
2023/10/31 05:24:00;;;;;;;23.17;15.20;;;10.80;99.90;;;;;;5075889;28;20036;-71
2023/10/31 05:26:28;;;;;;;23.25;14.45;;;10.70;99.90;;;;;;5074441;28;20025;-71
2023/10/31 05:28:53;;;;;;;24.00;13.75;;;10.50;99.90;;;;;;5074493;28;20166;-71
2023/10/31 05:31:19;;;;;;;23.27;14.50;;;10.80;99.90;;;;;;5075043;28;20078;-71
2023/10/31 05:33:45;;;;;;;23.45;13.93;;;10.80;99.90;;;;;;5074989;28;20540;-71
2023/10/31 05:36:27;;;;;;;18.25;13.27;;;11.00;99.90;;;;;;5074478;28;20032;-72
2023/10/31 05:38:53;;;;;;;22.70;14.35;;;10.80;99.90;;;;;;5074844;28;20025;-73
2023/10/31 05:41:18;;;;;;;22.58;13.70;;;10.90;99.90;;;;;;5074550;28;20074;-72
2023/10/31 05:43:44;;;;;;;23.15;15.05;;;10.50;99.90;;;;;;5074597;28;20028;-71
2023/10/31 05:46:10;;;;;;;23.35;16.45;;;10.80;99.90;;;;;;5074061;28;20051;-71
2023/10/31 05:48:39;;;;;;;21.30;15.45;;;10.80;99.90;;;;;;5073896;28;20025;-71
2023/10/31 05:51:12;;;;;;;26.05;16.23;;;10.80;99.90;;;;;;5074275;28;20035;-71
2023/10/31 05:53:40;;;;;;;20.75;14.68;;;10.80;99.90;;;;;;5074563;28;20344;-71
2023/10/31 05:56:07;;;;;;;23.92;15.35;;;10.80;99.90;;;;;;5074132;28;20052;-71
2023/10/31 05:58:32;;;;;;;20.73;14.10;;;10.80;99.90;;;;;;5074471;28;20025;-71
2023/10/31 06:00:58;;;;;;;25.10;15.48;;;10.80;99.90;;;;;;5074135;28;20035;-71
2023/10/31 06:03:23;;;;;;;24.00;15.20;;;10.80;99.90;;;;;;5074112;28;20091;-71
2023/10/31 06:05:50;;;;;;;24.63;16.08;;;;;;;;;;5073840;28;20020;-71
2023/10/31 06:08:16;;;;;;;26.65;16.63;;;10.90;99.90;;;;;;5074084;28;20047;-71
2023/10/31 06:10:41;;;;;;;26.20;16.70;;;10.70;99.90;;;;;;5073933;28;20021;-70
2023/10/31 06:13:08;;;;;;;25.42;16.60;;;;;;;;;;5073724;28;20036;-71
2023/10/31 06:15:34;;;;;;;26.35;16.88;;;10.50;99.90;;;;;;5073987;28;20058;-71
2023/10/31 06:17:59;;;;;;;24.85;17.08;;;10.80;99.90;;;;;;5073991;28;20036;-71
2023/10/31 06:20:26;;;;;;;25.48;17.35;;;11.00;99.90;;;;;;5073878;28;20025;-71
2023/10/31 06:22:51;;;;;;;28.13;17.17;;;10.80;99.90;;;;;;5072944;28;20118;-71
2023/10/31 06:25:17;;;;;;;24.50;16.65;;;10.60;99.90;;;;;;5073832;28;20478;-71
2023/10/31 06:27:42;;;;;;;24.52;16.38;;;10.50;99.90;;;;;;5073168;28;20117;-71
2023/10/31 06:30:09;;;;;;;25.58;17.13;;;10.60;99.90;;;;;;5073512;28;20031;-71
2023/10/31 06:32:34;;;;;;;28.80;18.63;;;10.80;99.90;;;;;;5074007;28;20017;-70
2023/10/31 06:35:00;;;;;;;28.83;17.38;;;10.60;99.90;;;;;;5073445;28;20037;-70
2023/10/31 06:37:25;;;;;;;25.75;15.93;;;10.60;99.90;;;;;;5073338;28;20284;-70
2023/10/31 06:39:51;;;;;;;27.77;17.70;;;10.60;99.90;;;;;;5077136;28;20108;-70
2023/10/31 06:42:17;;;;;;;30.90;18.33;;;10.60;99.90;;;;;;5078126;28;20046;-71
2023/10/31 06:44:42;;;;;;;29.55;18.45;;;10.60;99.90;;;;;;5077017;28;20117;-70
2023/10/31 06:47:08;;;;;;;30.85;18.23;;;10.80;99.90;;;;;;5077430;28;20107;-71
2023/10/31 06:49:33;;;;;;;28.73;16.98;;;10.70;99.90;;;;;;5077192;28;20033;-71
2023/10/31 06:51:59;;;;;;;25.20;16.15;;;10.60;99.90;;;;;;5077595;28;20020;-71
2023/10/31 06:54:24;;;;;;;29.02;17.10;;;10.70;99.90;;;;;;5077671;28;20025;-71
2023/10/31 06:56:50;;;;;;;27.20;17.33;;;10.60;99.90;;;;;;5076782;28;20039;-70
2023/10/31 06:59:15;;;;;;;28.65;16.90;;;10.50;99.90;;;;;;5077652;28;20070;-70
2023/10/31 07:01:41;;;;;;;28.63;17.55;;;10.50;99.90;;;;;;5077740;28;20107;-70
2023/10/31 07:04:07;;;;;;;31.13;18.63;;;10.60;99.90;;;;;;5076619;28;20039;-70
2023/10/31 07:06:32;;;;;;;29.10;17.70;;;10.50;99.90;;;;;;5077548;28;20035;-71
2023/10/31 07:09:00;;;;;;;27.67;18.10;;;10.60;99.90;;;;;;5076231;28;20020;-70
2023/10/31 07:11:30;;;;;;;27.38;16.13;;;10.60;99.90;;;;;;5077181;28;20124;-71
2023/10/31 07:13:56;;;;;;;22.65;15.32;;;10.60;99.90;;;;;;5077420;28;20024;-71
2023/10/31 07:16:21;;;;;;;27.02;15.50;;;10.30;99.90;;;;;;5073137;28;20067;-71
2023/10/31 07:18:47;;;;;;;22.67;14.05;;;;;;;;;;5056186;28;20179;-71
2023/10/31 07:21:13;;;;;;;19.48;12.00;;;10.60;99.90;;;;;;5072873;28;20016;-71
2023/10/31 07:23:39;;;;;;;21.63;12.55;;;;;;;;;;5068928;28;20107;-71
2023/10/31 07:26:06;;;;;;;21.42;11.82;;;;;;;;;;5068195;28;20060;-70
2023/10/31 07:28:32;;;;;;;16.95;10.13;;;10.70;99.90;;;;;;5063298;28;20545;-72
2023/10/31 07:31:00;;;;;;;18.80;10.93;;;11.10;99.90;;;;;;5071205;28;20052;-71
2023/10/31 07:33:27;;;;;;;16.33;9.70;;;;;;;;;;5056582;28;20036;-71
2023/10/31 07:35:52;;;;;;;13.77;8.35;;;11.60;99.90;;;;;;5066075;28;20454;-70
2023/10/31 07:38:20;;;;;;;17.23;10.57;;;11.50;99.90;;;;;;5076009;28;20028;-70
2023/10/31 07:40:48;;;;;;;16.27;9.82;;;;;;;;;;5075430;28;20382;-70
2023/10/31 07:43:15;;;;;;;14.63;9.48;;;11.20;99.90;;;;;;5058638;28;20033;-71
2023/10/31 07:45:41;;;;;;;19.42;10.45;;;11.20;99.90;;;;;;5055249;28;20043;-70
2023/10/31 07:48:09;;;;;;;17.30;11.10;;;;;;;;;;5053981;28;20402;-70
2023/10/31 07:50:36;;;;;;;21.45;11.73;;;;;;;;;;5063545;28;20105;-70
2023/10/31 07:53:01;;;;;;;18.55;12.88;;;11.00;99.90;;;;;;5073867;28;20047;-71
2023/10/31 07:55:27;;;;;;;17.73;12.35;;;11.00;99.90;;;;;;5068794;28;20029;-70
2023/10/31 07:57:54;;;;;;;22.00;12.88;;;11.10;99.90;;;;;;5061953;28;20496;-69
2023/10/31 08:00:22;;;;;;;25.38;15.40;;;10.80;99.90;;;;;;5057044;28;20099;-70
2023/10/31 08:02:49;;;;;;;23.83;15.80;;;;;;;;;;5060702;28;20037;-70
2023/10/31 08:05:15;;;;;;;30.23;16.38;;;;;;;;;;5056589;28;20032;-69
2023/10/31 08:07:43;;;;;;;28.45;16.83;;;11.20;99.90;;;;;;5074566;28;20090;-70
2023/10/31 08:10:11;;;;;;;29.30;16.90;;;11.40;99.90;;;;;;5076468;28;20020;-71
2023/10/31 08:12:38;;;;;;;26.45;15.85;;;;;;;;;;5070814;28;20028;-70
2023/10/31 08:15:04;;;;;;;26.63;16.55;;;;;;;;;;5055323;28;20040;-70
2023/10/31 08:17:30;;;;;;;23.35;15.88;;;;;;;;;;5059491;28;20048;-70
2023/10/31 08:19:56;;;;;;;24.98;16.27;;;;;;;;;;5065962;28;20029;-70
2023/10/31 08:22:22;;;;;;;24.40;15.30;;;12.10;99.90;;;;;;5061913;28;20384;-70
2023/10/31 08:24:48;;;;;;;21.90;15.27;;;;;;;;;;5065310;28;20471;-70
2023/10/31 08:27:14;;;;;;;23.55;16.50;;;;;;;;;;5062657;28;20071;-70
2023/10/31 08:29:40;;;;;;;23.27;16.10;;;;;;;;;;5063771;28;20484;-74
2023/10/31 08:32:06;;;;;;;26.75;16.23;;;;;;;;;;5062885;28;20024;-67
2023/10/31 08:34:32;;;;;;;26.98;17.25;;;;;;;;;;5061892;28;20426;-68
2023/10/31 08:36:59;;;;;;;24.00;16.55;;;;;;;;;;5057500;28;20120;-69
2023/10/31 08:39:25;;;;;;;30.13;17.55;;;;;;;;;;5058589;28;20021;-71
2023/10/31 08:41:51;;;;;;;25.40;16.77;;;;;;;;;;5056401;28;20533;-70
2023/10/31 08:44:17;;;;;;;27.92;17.45;;;;;;;;;;5057476;28;20029;-68
2023/10/31 08:46:43;;;;;;;24.63;17.30;;;;;;;;;;5065178;28;20033;-68
2023/10/31 08:49:09;;;;;;;23.33;15.95;;;11.50;99.90;;;;;;5064152;28;20033;-68
2023/10/31 08:51:35;;;;;;;20.80;14.98;;;11.50;99.90;;;;;;5054673;28;20021;-69
2023/10/31 08:54:00;;;;;;;21.40;15.05;;;11.50;99.90;;;;;;5054614;28;20479;-69
2023/10/31 08:56:27;;;;;;;20.67;15.40;;;;;;;;;;5054130;28;20453;-68
2023/10/31 08:58:53;;;;;;;21.80;14.68;;;11.40;99.90;;;;;;5055547;28;20025;-68
2023/10/31 09:01:19;;;;;;;18.58;13.25;;;11.60;99.90;;;;;;5052727;28;20509;-70
2023/10/31 09:03:45;;;;;;;20.30;14.27;;;11.60;99.90;;;;;;5051303;28;20039;-68
2023/10/31 09:06:10;;;;;;;19.52;11.77;;;11.80;99.90;;;;;;5056934;28;20115;-69
2023/10/31 09:08:38;;;;;;;14.57;10.65;;;11.90;99.90;;;;;;5056295;28;20060;-69
2023/10/31 09:11:05;;;;;;;15.88;11.80;;;;;;;;;;5055863;28;20021;-69
2023/10/31 09:13:34;;;;;;;16.00;11.32;;;12.10;99.90;;;;;;5059878;28;20475;-69
2023/10/31 09:16:00;;;;;;;14.82;11.25;;;12.10;99.90;;;;;;5071539;28;20444;-69
2023/10/31 09:18:26;;;;;;;13.07;10.63;;;12.20;99.90;;;;;;5061197;28;20029;-68
2023/10/31 09:20:52;;;;;;;13.45;10.48;;;12.10;99.90;;;;;;5068881;28;20033;-68
2023/10/31 09:23:18;;;;;;;12.20;9.38;;;11.20;99.90;;;;;;5058804;28;20041;-68
2023/10/31 09:25:44;;;;;;;13.02;10.18;;;11.90;99.90;;;;;;5064146;28;20029;-68
2023/10/31 09:28:09;;;;;;;13.77;10.63;;;11.70;99.90;;;;;;5065902;28;20042;-68
2023/10/31 09:30:35;;;;;;;15.45;11.45;;;;;;;;;;5066172;28;20100;-68
2023/10/31 09:33:01;;;;;;;13.75;10.88;;;11.70;99.90;;;;;;5065046;28;20029;-69
2023/10/31 09:35:27;;;;;;;16.13;11.23;;;;;;;;;;5055481;28;20079;-69
2023/10/31 09:37:53;;;;;;;12.90;10.45;;;11.70;99.90;;;;;;5052826;28;20029;-68
2023/10/31 09:40:20;;;;;;;17.23;11.52;;;11.60;99.90;;;;;;5058123;28;20470;-68
2023/10/31 09:42:46;;;;;;;18.70;12.95;;;11.70;99.90;;;;;;5058337;28;20540;-68
2023/10/31 09:45:12;;;;;;;19.67;14.02;;;11.70;99.90;;;;;;5054221;28;20040;-68
2023/10/31 09:47:37;;;;;;;18.55;15.10;;;11.60;99.90;;;;;;5060548;28;20116;-70
2023/10/31 09:50:04;;;;;;;23.85;16.70;;;11.60;99.90;;;;;;5053322;28;20428;-68
2023/10/31 09:52:29;;;;;;;22.67;16.77;;;11.70;99.90;;;;;;5070384;28;20385;-68
2023/10/31 09:54:56;;;;;;;25.27;16.90;;;11.60;99.90;;;;;;5058607;28;20043;-70
2023/10/31 09:57:22;;;;;;;21.48;17.08;;;11.40;99.90;;;;;;5063147;28;20031;-69
2023/10/31 09:59:48;;;;;;;23.85;17.52;;;11.80;99.90;;;;;;5053125;28;20037;-68
2023/10/31 10:02:13;;;;;;;23.70;17.35;;;11.80;99.90;;;;;;5052776;28;20101;-69
2023/10/31 10:04:39;;;;;;;22.08;16.38;;;11.80;99.90;;;;;;5068570;28;20075;-68
2023/10/31 10:07:05;;;;;;;21.63;17.42;;;11.80;99.90;;;;;;5066768;28;20107;-71
2023/10/31 10:09:32;;;;;;;21.92;16.52;;;11.90;99.90;;;;;;5054702;28;20028;-69
2023/10/31 10:12:00;;;;;;;22.35;16.63;;;11.90;99.90;;;;;;5062089;28;20044;-70
2023/10/31 10:14:28;;;;;;;19.73;15.48;;;12.00;99.90;;;;;;5060786;28;20542;-69
2023/10/31 10:16:54;;;;;;;20.35;14.70;;;11.90;99.90;;;;;;5058759;28;20024;-70
2023/10/31 10:19:21;;;;;;;19.90;14.40;;;11.90;99.90;;;;;;5065651;28;20498;-69
2023/10/31 10:21:50;;;;;;;19.67;14.68;;;12.00;99.90;;;;;;5068314;28;20040;-69
2023/10/31 10:24:18;;;;;;;18.73;14.15;;;12.10;99.90;;;;;;5084554;28;20478;-69
2023/10/31 10:26:44;;;;;;;18.98;14.20;;;11.90;99.90;;;;;;5068130;28;20032;-69
2023/10/31 10:29:10;;;;;;;19.25;14.07;;;12.10;99.90;;;;;;5061768;28;20040;-68
2023/10/31 10:31:35;;;;;;;19.08;14.18;;;12.00;99.90;;;;;;5057192;28;20103;-69
2023/10/31 10:34:01;;;;;;;21.27;15.55;;;11.90;99.90;;;;;;5072966;28;20466;-69
2023/10/31 10:36:27;;;;;;;16.85;13.88;;;11.90;99.90;;;;;;5074170;28;20031;-69
2023/10/31 10:38:57;;;;;;;17.40;13.05;;;12.00;99.90;;;;;;5073032;28;20063;-69
2023/10/31 10:41:25;;;;;;;17.65;14.60;;;12.20;99.90;;;;;;5072952;28;20032;-70
2023/10/31 10:43:56;;;;;;;18.58;15.00;;;12.30;99.90;;;;;;5067209;28;20032;-69
2023/10/31 10:46:25;;;;;;;19.05;15.20;;;12.30;99.90;;;;;;5076252;28;20032;-69
2023/10/31 10:48:57;;;;;;;20.05;15.82;;;12.40;99.90;;;;;;5068844;28;20476;-74
2023/10/31 10:51:29;;;;;;;20.98;16.02;;;12.30;99.90;;;;;;5076395;28;20112;-71
2023/10/31 10:54:04;;;;;;;20.00;15.23;;;12.40;99.90;;;;;;5084881;28;20473;-69
2023/10/31 10:56:37;;;;;;;19.88;15.93;;;12.40;99.90;;;;;;5054408;28;20044;-69
2023/10/31 10:59:13;;;;;;;22.63;15.63;;;12.50;99.90;;;;;;5077794;28;20071;-69
2023/10/31 11:01:40;;;;;;;21.20;15.07;;;12.40;99.90;;;;;;5077131;28;20040;-68
2023/10/31 11:04:07;;;;;;;18.25;14.43;;;12.60;99.90;;;;;;5075517;28;20086;-69
2023/10/31 11:06:35;;;;;;;19.42;14.80;;;12.60;99.90;;;;;;5086232;28;20059;-69
2023/10/31 11:09:00;;;;;;;17.65;15.05;;;12.50;99.90;;;;;;5078350;28;20036;-68
2023/10/31 11:11:27;;;;;;;22.40;14.82;;;12.40;99.90;;;;;;5079562;28;20043;-69
2023/10/31 11:13:56;;;;;;;18.52;14.00;;;12.80;99.90;;;;;;5079363;28;20410;-69
2023/10/31 11:16:30;;;;;;;20.05;14.02;;;12.60;99.90;;;;;;5070938;28;20035;-69
2023/10/31 11:18:56;;;;;;;21.20;14.70;;;12.50;99.90;;;;;;5060443;28;20044;-71
2023/10/31 11:21:23;;;;;;;19.60;15.82;;;12.40;99.90;;;;;;5064943;28;20478;-69
2023/10/31 11:23:58;;;;;;;18.33;13.73;;;12.60;99.90;;;;;;5064934;28;20041;-68
2023/10/31 11:26:26;;;;;;;19.02;12.60;;;12.10;99.90;;;;;;5070707;28;20523;-70
2023/10/31 11:28:52;;;;;;;21.23;13.55;;;12.40;99.90;;;;;;5069120;28;20393;-70
2023/10/31 11:31:17;;;;;;;19.50;13.82;;;12.40;99.90;;;;;;5067478;28;20032;-69
2023/10/31 11:33:46;;;;;;;19.35;14.40;;;12.40;99.90;;;;;;5069040;28;20469;-69
2023/10/31 11:36:11;;;;;;;18.27;12.93;;;12.30;99.90;;;;;;5073245;28;20482;-68
2023/10/31 11:38:38;;;;;;;18.30;13.00;;;12.40;99.90;;;;;;5060196;28;20111;-69
2023/10/31 11:41:05;;;;;;;16.38;12.68;;;12.40;99.90;;;;;;5072117;28;20393;-69
2023/10/31 11:43:52;;;;;;;14.45;12.20;;;;;;;;;;5074355;28;20124;-69
2023/10/31 11:46:20;;;;;;;18.13;12.57;;;;;;;;;;5065673;28;20487;-69
2023/10/31 11:48:50;;;;;;;16.73;13.00;;;12.20;99.90;;;;;;5065805;28;20029;-68
2023/10/31 11:51:15;;;;;;;19.40;13.32;;;12.30;99.90;;;;;;5066983;28;20111;-68
2023/10/31 11:53:43;;;;;;;21.50;15.50;;;12.30;99.90;;;;;;5059809;28;20547;-69
2023/10/31 11:56:11;;;;;;;16.83;12.55;;;12.20;99.90;;;;;;5059576;28;20078;-68
2023/10/31 11:58:37;;;;;;;16.80;12.85;;;12.30;99.90;;;;;;5062868;28;20128;-68
2023/10/31 12:01:04;;;;;;;20.58;13.13;;;12.20;99.90;;;;;;5070233;28;21013;-68
2023/10/31 12:03:47;;;;;;;16.65;12.27;;;12.30;99.90;;;;;;5074788;28;20040;-69
2023/10/31 12:06:14;;;;;;;23.10;12.55;;;12.10;99.90;;;;;;5087938;28;20039;-68
2023/10/31 12:08:42;;;;;;;16.55;12.52;;;;;;;;;;5082364;28;20410;-68
2023/10/31 12:11:19;;;;;;;17.17;11.93;;;12.60;99.90;;;;;;5087276;28;20099;-68
2023/10/31 12:14:04;;;;;;;18.42;12.43;;;;;;;;;;5075774;28;20037;-67
2023/10/31 12:16:33;;;;;;;15.50;11.52;;;;;;;;;;5074382;28;20123;-68
2023/10/31 12:19:01;;;;;;;20.15;11.93;;;12.50;99.90;;;;;;5078229;28;20181;-69
2023/10/31 12:21:47;;;;;;;18.13;11.13;;;12.50;99.90;;;;;;5075477;28;20028;-69
2023/10/31 12:24:15;;;;;;;17.83;11.60;;;12.60;99.90;;;;;;5072991;28;20537;-70
2023/10/31 12:26:44;;;;;;;16.70;11.40;;;12.70;99.90;;;;;;5074369;28;20035;-68
2023/10/31 12:29:14;;;;;;;18.30;11.88;;;12.70;99.90;;;;;;5083293;28;20028;-68
2023/10/31 12:31:45;;;;;;;17.90;12.07;;;12.60;99.90;;;;;;5066419;28;20032;-68
2023/10/31 12:34:13;;;;;;;20.15;11.20;;;12.60;99.90;;;;;;5072549;28;20107;-68
2023/10/31 12:36:40;;;;;;;23.45;11.75;;;12.30;99.90;;;;;;5082168;28;20541;-68